Terminal Aerodrome Forecast
Issued by NWS Tampa Bay Area, FL

Home | Current Version | Previous Version | Text Only | Print | Product List | Glossary On
Versions: 1 2 3 4 5 6 7 8 9 10 11 12 13 14 15 16
000
FTUS42 KTBW 262320
TAFFMY
TAF
KFMY 262320Z 2700/2724 18007KT P6SM VCTS SCT040CB BKN150
     FM270100 VRB04KT P6SM FEW150
     FM271400 12005KT P6SM FEW035 SCT250
     FM271800 20007KT P6SM VCTS SCT040CB SCT250=

USA.gov is the U.S. government's official web portal to all federal, state and local government web resources and services.